Hanover Insurance Group Inc (THG) Latest Bloomsberg Price


Mffais Ranking #2496 Overall / #41 Industry
Industry: P And C Insurance

Number of Companies: 221 (Ranking #729 Overall/#14 Industry)
Inflow: $ 81,792 (K) (Ranking #1070 Overall/#14 Industry)
Outflow: $ -184,340 (K)
Mffais Flow: $ -102,547 (K) (Ranking #2496 Overall/#41 Industry)


Receive a FREE weekly executive review of stocks moving into the top 10, taking the top industy spot or moving up within their industry. Sent directly to your Inbox every Saturday. Sign up today and get last week's review immediately sent to you.

We value and respect your privacy. Please read our Terms and Conditions which states our firm commitment to your privacy. Your email address will not be shared with a third party, nor will it be sold or used for purposes other than subscription for the weekly review.

Owner CPOR Shares Action Qty Chg Invested (K) Total Current Value (K)
Perkins Investment Management Llc 2016-09-30 518,027 Added More 346,703 $ 28,935 $ 43,234
Monarch Partners Asset Management Llc 2016-09-30 284,208 Added More 174,040 $ 14,525 $ 23,720
Pinebridge Investments L P 2016-09-30 94,810 New Holding 94,810 $ 7,912 $ 7,912
Ahl Partners Llp 2016-09-30 79,505 Added More 62,719 $ 5,234 $ 6,635
Clinton Group Inc 2016-09-30 91,133 Added More 29,438 $ 2,456 $ 7,605
Jacobs Levy Equity Management Inc 2016-09-30 75,670 Added More 27,960 $ 2,333 $ 6,315
Quadrature Capital Ltd 2016-09-30 20,103 New Holding 20,103 $ 1,677 $ 1,677
Old Mutual Global Investors Uk Ltd 2016-09-30 36,494 Added More 18,238 $ 1,522 $ 3,045
Menta Capital Llc 2016-09-30 18,000 New Holding 18,000 $ 1,502 $ 1,502
Centurylink Investment Management Co 2016-09-30 17,939 New Holding 17,939 $ 1,497 $ 1,497
Emerald Acquisition Ltd 2016-09-30 323,669 Added More 17,811 $ 1,486 $ 27,013
Princeton Alpha Management Lp 2016-09-30 20,932 Added More 15,066 $ 1,257 $ 1,746
Rothschild Asset Management Inc 2016-09-30 145,966 Added More 11,949 $ 997 $ 12,182
Gam Holding Ag 2016-09-30 29,243 Added More 9,012 $ 752 $ 2,440
Quantitative Systematic Strategies Llc 2016-09-30 8,404 New Holding 8,404 $ 701 $ 701
Bessemer Group Inc 2016-09-30 8,136 New Holding 8,136 $ 679 $ 679
Northern Trust Corp 2016-09-30 417,707 Added More 7,903 $ 659 $ 34,861
Hallmark Capital Management Inc 2016-09-30 171,655 Added More 7,650 $ 638 $ 14,326
New York State Common Retirement Fund 2016-09-30 130,089 Added More 7,376 $ 615 $ 10,857
Cadence Capital Management Llc 2016-09-30 6,110 New Holding 6,110 $ 509 $ 509
Foundry Partners Llc 2016-09-30 108,045 Added More 5,568 $ 464 $ 9,017
Omers Administration Corp 2016-09-30 5,300 New Holding 5,300 $ 442 $ 442
Two Sigma Securities Llc 2016-09-30 5,295 New Holding 5,295 $ 441 $ 441
Kcg Holdings Inc 2016-09-30 33,700 Added More 5,251 $ 438 $ 2,812
Tlp Group Llc 2016-09-30 3,855 New Holding 3,855 $ 321 $ 321
First Mercantile Trust Co 2016-09-30 3,780 New Holding 3,780 $ 315 $ 315
Legg Mason Asset Management Japan Co Ltd 2016-09-30 14,600 Added More 3,500 $ 292 $ 1,218
Aperio Group Llc 2016-09-30 21,399 Added More 2,875 $ 239 $ 1,785
Squarepoint Ops Llc 2016-09-30 7,566 Added More 2,856 $ 238 $ 631
World Asset Management Inc 2016-09-30 2,772 New Holding 2,772 $ 231 $ 231
Jane Street Group Llc 2016-09-30 2,712 New Holding 2,712 $ 226 $ 226
Sei Investments Co 2016-09-30 80,349 Added More 2,644 $ 220 $ 6,705
Grimes Company Inc 2016-09-30 48,939 Added More 2,452 $ 204 $ 4,084
Cutler Group Lp 2016-09-30 1,800 Added More 1,700 $ 141 $ 150
Tower Research Capital Llc Trc 2016-09-30 3,877 Added More 1,603 $ 133 $ 323
Systematic Financial Management Lp 2016-09-30 22,845 Added More 1,535 $ 128 $ 1,906
Breton Hill Capital Ltd 2016-09-30 8,900 Added More 1,437 $ 119 $ 742
Mutual Of America Capital Management Llc 2016-09-30 32,986 Added More 1,249 $ 104 $ 2,753
Legal General Group Plc 2016-09-30 29,232 Added More 1,135 $ 94 $ 2,439
I G Investment Management Ltd 2016-09-30 6,066 Added More 1,124 $ 93 $ 506
Tudor Investment Corp Et Al 2016-09-30 10,258 Added More 1,058 $ 88 $ 856
Lucus Advisors Llc 2016-09-30 5,191 Added More 1,043 $ 87 $ 433
Vident Investment Advisory Llc 2016-09-30 27,667 Added More 984 $ 82 $ 2,309
Acrospire Investment Management Llc 2016-09-30 800 New Holding 800 $ 66 $ 66
California State Teachers Retirement System 2016-09-30 92,785 Added More 800 $ 66 $ 7,743
Verition Fund Management Llc 2016-09-30 6,192 Added More 777 $ 64 $ 516
Blackrock Inc 2016-09-30 46,378 Added More 718 $ 59 $ 3,870
Bokf Na 2016-09-30 9,901 Added More 712 $ 59 $ 826
Liberty Mutual Group Asset Management Inc 2016-09-30 19,208 Added More 619 $ 51 $ 1,603
Creative Planning 2016-09-30 4,216 Added More 591 $ 49 $ 351
Fuller Thaler Asset Management Inc 2016-09-30 900 Added More 500 $ 41 $ 75
Stevens Capital Management Lp 2016-09-30 31,856 Added More 461 $ 38 $ 2,658
Envestnet Asset Management Inc 2016-09-30 2,600 Added More 434 $ 36 $ 216
Pacer Advisors Inc 2016-09-30 3,946 Added More 336 $ 28 $ 329
Oregon Public Employees Retirement Fund 2016-09-30 15,044 Added More 296 $ 24 $ 1,255
Fdx Advisors Inc 2016-09-30 6,489 Added More 232 $ 19 $ 541
Mason Street Advisors Llc 2016-09-30 19,777 Added More 189 $ 15 $ 1,650
Ls Investment Advisors Llc 2016-09-30 2,748 Added More 181 $ 15 $ 229
Commonwealth Equity Services Inc 2016-09-30 9,012 Added More 173 $ 14 $ 752
Zurcher Kantonalbank Zurich Cantonalbank 2016-09-30 1,456 Added More 172 $ 14 $ 121
Liberty Capital Management Inc 2016-09-30 125 New Holding 125 $ 10 $ 10
United Services Automobile Association 2016-09-30 5,860 Added More 120 $ 10 $ 489
Goelzer Investment Management Inc 2016-09-30 41,762 Added More 112 $ 9 $ 3,485
Regentatlantic Capital Llc 2016-09-30 12,100 Added More 112 $ 9 $ 1,009
Cwm Llc 2016-09-30 100 New Holding 100 $ 8 $ 8
Motco 2016-09-30 99 New Holding 99 $ 8 $ 8
Us Bancorp De 2016-09-30 13,166 Added More 79 $ 6 $ 1,098
Howe Rusling Inc 2016-09-30 141 Added More 50 $ 4 $ 11
Weaver C Barksdale Associates Inc 2016-09-30 313 Added More 49 $ 4 $ 26
Woodmont Investment Counsel Llc 2016-09-30 31 New Holding 31 $ 2 $ 2
Arrowpoint Asset Management Llc 2016-09-30 30 New Holding 30 $ 2 $ 2
Pnc Financial Services Group Inc 2016-09-30 7,507 Added More 19 $ 1 $ 626
Advisory Services Network Llc 2016-09-30 615 Added More 4 $ 0 $ 51
Ifp Advisors Inc 2016-09-30 554 Added More 2 $ 0 $ 46
Boston Financial Mangement Llc 2016-09-30 2,917 No Change 0 $ 0 $ 243
Advantus Capital Management Inc 2016-09-30 5,202 No Change 0 $ 0 $ 434
Bartlett Co Llc 2016-09-30 407 No Change 0 $ 0 $ 33
Utah Retirement Systems 2016-09-30 7,746 No Change 0 $ 0 $ 646
Century Capital Management Llc 2016-09-30 11,365 No Change 0 $ 0 $ 948
Plante Moran Financial Advisors Llc 2016-09-30 370 No Change 0 $ 0 $ 30
Grace White Inc Ny 2016-09-30 19,825 No Change 0 $ 0 $ 1,654
Delta Asset Management Llc Tn 2016-09-30 1,500 No Change 0 $ 0 $ 125
Synovus Financial Corp 2016-09-30 78 No Change 0 $ 0 $ 6
Gemmer Asset Management Llc 2016-09-30 100 No Change 0 $ 0 $ 8
Diam Co Ltd 2016-09-30 3,900 No Change 0 $ 0 $ 325
Nn Investment Partners Holdings N V 2016-09-30 3,700 No Change 0 $ 0 $ 308
Dreman Value Management L L C 2016-09-30 232 No Change 0 $ 0 $ 19
Peoples United Financial Inc 2016-09-30 2,775 No Change 0 $ 0 $ 231
Dekabank Deutsche Girozentrale 2016-09-30 430 No Change 0 $ 0 $ 35
Parkside Financial Bank Trust 2016-09-30 485 No Change 0 $ 0 $ 40
Employees Retirement System Of Texas 2016-09-30 35,000 No Change 0 $ 0 $ 2,921
Fifth Third Bancorp 2016-09-30 250 No Change 0 $ 0 $ 20
Lowe Brockenbrough Co Inc 2016-09-30 20,678 No Change 0 $ 0 $ 1,725
Crestpoint Capital Management Llc 2016-09-30 12,400 No Change 0 $ 0 $ 1,034
Yorktown Management Research Co Inc 2016-09-30 4,000 No Change 0 $ 0 $ 333
First Hawaiian Bank 2016-09-30 7,401 No Change 0 $ 0 $ 617
State Treasurer State Of Michigan 2016-09-30 17,250 No Change 0 $ 0 $ 1,439
Brc Investment Management Llc 2016-09-30 8,241 No Change 0 $ 0 $ 687
First Manhattan Co 2016-09-30 794 No Change 0 $ 0 $ 66
Estabrook Capital Management 2016-09-30 422 No Change 0 $ 0 $ 35
Nuveen Asset Management Llc 2016-09-30 17,921 No Change 0 $ 0 $ 1,495
Qs Investors Llc 2016-09-30 5,399 No Change 0 $ 0 $ 450
Endurance Wealth Management Inc 2016-09-30 1,000 No Change 0 $ 0 $ 83
Teachers Retirement System Of The State Of Kentucky 2016-09-30 11,600 No Change 0 $ 0 $ 968
Old National Bancorp In 2016-09-30 6,077 No Change 0 $ 0 $ 507
Sandy Spring Bank 2016-09-30 298 No Change 0 $ 0 $ 24
Wfg Advisors Lp 2016-09-30 168 Sold Some -2 $ -0 $ 14
Citizens Financial Group Inc Ri 2016-09-30 54 Sold Some -3 $ -0 $ 4
First Quadrant L P Ca 2016-09-30 154,693 Sold Some -7 $ -0 $ 12,910
Capstone Asset Management Co 2016-09-30 6,786 Sold Some -10 $ -0 $ 566
Quadrant Capital Group Llc 2016-09-30 0 Sold All -14 $ -1 $ 0
Sterling Capital Management Llc 2016-09-30 232,980 Sold Some -16 $ -1 $ 19,444
Salzhauer Michael 2016-09-30 12,804 Sold Some -22 $ -1 $ 1,068
Proficio Capital Partners Llc 2016-09-30 0 Sold All -32 $ -2 $ 0
Financial Management Professionals Inc 2016-09-30 0 Sold All -45 $ -3 $ 0
Advisors Preferred Llc 2016-09-30 0 Sold All -53 $ -4 $ 0
Northwestern Mutual Investment Management Company Llc 2016-09-30 7,361 Sold Some -54 $ -4 $ 614
First Republic Investment Management Inc 2016-09-30 3,276 Sold Some -75 $ -6 $ 273
Cornerstone Advisors Inc 2016-09-30 0 Sold All -76 $ -6 $ 0
Oakbrook Investments Llc 2016-09-30 4,275 Sold Some -100 $ -8 $ 356
Arizona State Retirement System 2016-09-30 16,677 Sold Some -100 $ -8 $ 1,391
Msi Financial Services Inc 2016-09-30 836 Sold Some -113 $ -9 $ 69
Ladenburg Thalmann Financial Services Inc 2016-09-30 989 Sold Some -171 $ -14 $ 82
Nisa Investment Advisors Llc 2016-09-30 33,600 Sold Some -200 $ -16 $ 2,804
Ibm Retirement Fund 2016-09-30 4,039 Sold Some -232 $ -19 $ 337
Arcadia Investment Management Corp Mi 2016-09-30 0 Sold All -250 $ -20 $ 0
Texas Permanent School Fund 2016-09-30 32,562 Sold Some -281 $ -23 $ 2,717
Point72 Asia Hong Kong Ltd 2016-09-30 600 Sold Some -500 $ -41 $ 50
Proshare Advisors Llc 2016-09-30 9,067 Sold Some -567 $ -47 $ 756
New York State Teachers Retirement System 2016-09-30 104,022 Sold Some -600 $ -50 $ 8,681
American International Group Inc 2016-09-30 82,590 Sold Some -604 $ -50 $ 6,892
Checchi Capital Advisers Llc 2016-09-30 0 Sold All -615 $ -51 $ 0
Blackrock Japan Co Ltd 2016-09-30 3,158 Sold Some -647 $ -53 $ 263
Raymond James Financial Services Advisors Inc 2016-09-30 16,854 Sold Some -649 $ -54 $ 1,406
Capital One National Association 2016-09-30 85,914 Sold Some -677 $ -56 $ 7,170
Advisor Group Inc 2016-09-30 132 Sold Some -687 $ -57 $ 11
Mu Investments Co Ltd 2016-09-30 950 Sold Some -800 $ -66 $ 79
Dupont Capital Management Corp 2016-09-30 19,307 Sold Some -821 $ -68 $ 1,611
Nomura Asset Management Co Ltd 2016-09-30 0 Sold All -910 $ -75 $ 0
Comerica Bank 2016-09-30 44,858 Sold Some -951 $ -79 $ 3,743
Silvercrest Asset Management Group Llc 2016-09-30 8,610 Sold Some -990 $ -82 $ 718
Cubist Systematic Strategies Llc 2016-09-30 3,437 Sold Some -1,087 $ -90 $ 286
Oshaughnessy Asset Management Llc 2016-09-30 3,506 Sold Some -1,383 $ -115 $ 292
Shell Asset Management Co 2016-09-30 30,336 Sold Some -1,388 $ -115 $ 2,531
Teacher Retirement System Of Texas 2016-09-30 4,652 Sold Some -1,405 $ -117 $ 388
Foster Motley Inc 2016-09-30 67,590 Sold Some -1,409 $ -117 $ 5,641
Advisors Asset Management Inc 2016-09-30 1,015 Sold Some -1,509 $ -125 $ 84
Old Mutual Customised Solutions Proprietary Ltd 2016-09-30 800 Sold Some -1,600 $ -133 $ 66
Rafferty Asset Management Llc 2016-09-30 2,730 Sold Some -1,813 $ -151 $ 227
Rational Advisors Llc 2016-09-30 0 Sold All -1,900 $ -158 $ 0
First Citizens Bank Trust Co 2016-09-30 2,979 Sold Some -2,006 $ -167 $ 248
Campbell Co Investment Adviser Llc 2016-09-30 0 Sold All -2,384 $ -198 $ 0
Ironwood Investment Management Llc 2016-09-30 16,015 Sold Some -2,473 $ -206 $ 1,336
Zacks Investment Management 2016-09-30 0 Sold All -2,504 $ -208 $ 0
Walleye Trading Llc 2016-09-30 2,449 Sold Some -2,586 $ -215 $ 204
Netols Asset Management Inc 2016-09-30 125,605 Sold Some -2,595 $ -216 $ 10,482
Hsbc Holdings Plc 2016-09-30 0 Sold All -2,667 $ -222 $ 0
Gotham Asset Management Llc 2016-09-30 0 Sold All -2,675 $ -223 $ 0
Swiss National Bank 2016-09-30 69,400 Sold Some -2,700 $ -225 $ 5,792
Profund Advisors Llc 2016-09-30 5,681 Sold Some -2,750 $ -229 $ 474
Rhumbline Advisers 2016-09-30 81,783 Sold Some -2,964 $ -247 $ 6,825
A R T Advisors Llc 2016-09-30 4,100 Sold Some -2,994 $ -249 $ 342
Buckhead Capital Management Llc 2016-09-30 3,785 Sold Some -3,155 $ -263 $ 315
Chartwell Investment Partners Llc 2016-09-30 14,560 Sold Some -3,400 $ -283 $ 1,215
Miles Capital Inc 2016-09-30 0 Sold All -3,442 $ -287 $ 0
Nationwide Fund Advisors 2016-09-30 92,486 Sold Some -3,633 $ -303 $ 7,718
Tradition Capital Management Llc 2016-09-30 3,124 Sold Some -3,757 $ -313 $ 260
Frontier Wealth Management Llc 2016-09-30 0 Sold All -4,136 $ -345 $ 0
Stifel Financial Corp 2016-09-30 28,114 Sold Some -4,185 $ -349 $ 2,346
Tfs Capital Llc 2016-09-30 0 Sold All -4,299 $ -358 $ 0
Hillsdale Investment Management Inc 2016-09-30 100 Sold Some -4,400 $ -367 $ 8
William Blair Investment Management Llc 2016-09-30 247,506 Sold Some -4,505 $ -375 $ 20,656
Shelton Capital Management 2016-09-30 0 Sold All -4,542 $ -379 $ 0
Miller Howard Investments Inc Ny 2016-09-30 0 Sold All -4,875 $ -406 $ 0
Highbridge Capital Management Llc 2016-09-30 0 Sold All -4,956 $ -413 $ 0
Pacad Investment Ltd 2016-09-30 0 Sold All -4,995 $ -416 $ 0
Sciencast Management Lp 2016-09-30 0 Sold All -5,000 $ -417 $ 0
Teachers Advisors Inc 2016-09-30 58,156 Sold Some -5,382 $ -449 $ 4,853
Dynamic Technology Lab Private Ltd 2016-09-30 4,368 Sold Some -6,712 $ -560 $ 364
Panagora Asset Management Inc 2016-09-30 303,048 Sold Some -7,668 $ -639 $ 25,292
Robeco Institutional Asset Management B V 2016-09-30 73,842 Sold Some -7,735 $ -645 $ 6,162
Thrivent Financial For Lutherans 2016-09-30 80,680 Sold Some -8,670 $ -723 $ 6,733
Dynamic Capital Management Ltd 2016-09-30 0 Sold All -9,560 $ -797 $ 0
Barings Llc 2016-09-30 0 Sold All -10,300 $ -859 $ 0
Quantbot Technologies Lp 2016-09-30 2,021 Sold Some -10,460 $ -872 $ 168
Trexquant Investment Lp 2016-09-30 0 Sold All -10,509 $ -877 $ 0
National Planning Corp 2016-09-30 5,314 Sold Some -12,675 $ -1,057 $ 443
Brandywine Global Investment Management Llc 2016-09-30 143,858 Sold Some -13,180 $ -1,100 $ 12,006
New Vernon Investment Management Llc 2016-09-30 0 Sold All -14,193 $ -1,184 $ 0
Cantab Capital Partners Llp 2016-09-30 71 Sold Some -15,178 $ -1,266 $ 5
Wealth Enhancement Advisory Services Llc 2016-09-30 0 Sold All -15,613 $ -1,303 $ 0
Lord Abbett Co Llc 2016-09-30 471,481 Sold Some -16,290 $ -1,359 $ 39,349
Capstone Investment Advisors Llc 2016-09-30 3,200 Sold Some -16,852 $ -1,406 $ 267
Meeder Asset Management Inc 2016-09-30 5,460 Sold Some -17,727 $ -1,479 $ 455
Parametric Portfolio Associates Llc 2016-09-30 180,496 Sold Some -17,853 $ -1,490 $ 15,064
Martingale Asset Management L P 2016-09-30 264,918 Sold Some -18,495 $ -1,543 $ 22,110
Marshall Wace Llp 2016-09-30 0 Sold All -18,796 $ -1,568 $ 0
Ridgeworth Capital Management Llc 2016-09-30 807,776 Sold Some -20,100 $ -1,677 $ 67,416
Putnam Investments Llc 2016-09-30 100,718 Sold Some -20,225 $ -1,687 $ 8,405
Blackrock Investment Management Llc 2016-09-30 126,920 Sold Some -20,843 $ -1,739 $ 10,592
Cambria Investment Management L P 2016-09-30 0 Sold All -21,229 $ -1,771 $ 0
Gsa Capital Partners Llp 2016-09-30 7,827 Sold Some -22,293 $ -1,860 $ 653
Bluemountain Capital Management Llc 2016-09-30 29,173 Sold Some -23,062 $ -1,924 $ 2,434
Chicago Equity Partners Llc 2016-09-30 0 Sold All -26,750 $ -2,232 $ 0
Clarivest Asset Management Llc 2016-09-30 17 Sold Some -27,100 $ -2,261 $ 1
James Investment Research Inc 2016-09-30 16,285 Sold Some -28,940 $ -2,415 $ 1,359
State Of Tennessee Treasury Department 2016-09-30 0 Sold All -30,000 $ -2,503 $ 0
Grantham Mayo Van Otterloo Co Llc 2016-09-30 121,258 Sold Some -38,553 $ -3,217 $ 10,120
Hennessy Advisors Inc 2016-09-30 375,200 Sold Some -53,400 $ -4,456 $ 31,314
Sg Americas Securities Llc 2016-09-30 7,090 Sold Some -54,206 $ -4,524 $ 591
Cornerstone Capital Management Holdings Llc 2016-09-30 0 Sold All -59,392 $ -4,956 $ 0
Pioneer Investment Management Inc 2016-09-30 281,421 Sold Some -64,015 $ -5,342 $ 23,487
Bowling Portfolio Management Llc 2016-09-30 0 Sold All -64,274 $ -5,364 $ 0
Retirement Systems Of Alabama 2016-09-30 133,455 Sold Some -70,503 $ -5,884 $ 11,138
Guggenheim Capital Llc 2016-09-30 213,768 Sold Some -70,655 $ -5,896 $ 17,841
Investment Counselors Of Maryland Llc 2016-09-30 1,995 Sold Some -108,576 $ -9,061 $ 166
Dimensional Fund Advisors Lp 2016-09-30 3,048,523 Sold Some -113,880 $ -9,504 $ 254,429
Hancock Holding Co 2016-09-30 12,734 Sold Some -192,658 $ -16,079 $ 1,062
Keeley Asset Management Corp 2016-09-30 11,613 Sold Some -227,623 $ -18,997 $ 969
Mesirow Financial Investment Management - Equity Management 2016-09-30 0 Sold All -234,248 $ -19,550 $ 0
Skyline Asset Management Lp 2016-09-30 0 Sold All -242,407 $ -20,231 $ 0